Time;durP1;ratioP1;P1;durP2;ratioP2;P2;SDS_P1;SDS_P2;PMS_P1;PMS_P2;Temp;Humidity;BMP_temperature;BMP_pressure;BME280_temperature;BME280_humidity;BME280_pressure;Samples;Min_cycle;Max_cycle;Signal;HPM_P1;HPM_P2
2023/11/21 00:00:32;;;;;;;4.30;2.80;;;;;;;7.79;100.00;153361.59;5003949;28;20485;-75
2023/11/21 00:02:59;;;;;;;4.97;2.30;;;;;;;7.76;100.00;153352.53;5007829;28;20460;-75
2023/11/21 00:05:26;;;;;;;4.20;2.13;;;;;;;7.76;100.00;153352.53;5007064;28;20982;-76
2023/11/21 00:07:53;;;;;;;5.97;2.40;;;;;;;7.75;100.00;153351.28;5014575;28;20444;-75
2023/11/21 00:10:20;;;;;;;3.73;2.10;;;;;;;7.74;100.00;153347.38;5005734;28;20472;-75
2023/11/21 00:12:48;;;;;;;5.03;2.27;;;;;;;7.73;100.00;153346.06;5013452;28;20444;-75
2023/11/21 00:15:15;;;;;;;2.23;1.77;;;;;;;7.74;100.00;153347.38;5001730;28;20445;-75
2023/11/21 00:17:42;;;;;;;5.70;1.83;;;;;;;7.75;100.00;153349.97;5007328;28;20444;-76
2023/11/21 00:20:12;;;;;;;4.20;2.60;;;;;;;7.73;100.00;153344.81;5007860;28;20461;-76
2023/11/21 00:22:39;;;;;;;2.83;1.90;;;;;;;7.71;100.00;153339.63;5014710;28;20751;-76
2023/11/21 00:25:09;;;;;;;2.63;1.87;;;;;;;7.70;100.00;153337.06;5013448;28;20517;-76
2023/11/21 00:27:35;;;;;;;2.83;2.30;;;;;;;7.68;100.00;153333.16;5006317;28;20450;-75
2023/11/21 00:30:04;;;;;;;3.17;1.90;;;;;;;7.67;100.00;153329.31;5003849;28;20907;-76
2023/11/21 00:32:30;;;;;;;4.53;1.80;;;;;;;7.66;100.00;153328.00;5008038;28;20450;-75
2023/11/21 00:34:59;;;;;;;2.93;2.07;;;;;;;7.69;100.00;153334.47;4990528;28;20519;-75
2023/11/21 00:37:25;;;;;;;4.23;2.10;;;;;;;7.70;100.00;153337.06;5007032;28;20490;-75
2023/11/21 00:39:52;;;;;;;5.73;2.63;;;;;;;7.71;100.00;153339.63;5006906;28;20460;-75
2023/11/21 00:42:21;;;;;;;3.27;2.40;;;;;;;7.71;100.00;153339.63;5005219;28;20486;-75
2023/11/21 00:44:48;;;;;;;4.50;2.30;;;;;;;7.71;100.00;153339.63;4988881;28;20437;-75
2023/11/21 00:47:14;;;;;;;5.73;2.13;;;;;;;7.70;100.00;153338.38;5006799;28;20448;-75
2023/11/21 00:49:41;;;;;;;2.57;2.17;;;;;;;7.73;100.00;153344.81;5007157;28;20460;-76
2023/11/21 00:52:07;;;;;;;3.90;1.80;;;;;;;7.73;100.00;153346.06;5005969;28;20476;-76
2023/11/21 00:54:34;;;;;;;3.43;2.23;;;;;;;7.73;100.00;153346.06;5011183;28;20473;-75
2023/11/21 00:57:01;;;;;;;3.93;2.47;;;;;;;7.73;100.00;153344.81;5006596;28;20487;-75
2023/11/21 00:59:29;;;;;;;3.13;2.43;;;;;;;7.74;100.00;153347.38;5006810;28;20444;-75
2023/11/21 01:01:55;;;;;;;3.00;1.73;;;;;;;7.73;100.00;153344.81;5007206;28;20530;-75
2023/11/21 01:04:22;;;;;;;2.20;1.90;;;;;;;7.72;100.00;153342.22;5008973;28;20453;-75
2023/11/21 01:06:48;;;;;;;3.33;2.00;;;;;;;7.73;100.00;153346.06;5010750;28;21027;-76
2023/11/21 01:09:17;;;;;;;3.37;2.13;;;;;;;7.74;100.00;153347.38;5010364;28;20963;-75
2023/11/21 01:11:43;;;;;;;3.93;2.13;;;;;;;7.73;100.00;153344.81;4985544;28;20476;-76
2023/11/21 01:14:10;;;;;;;2.53;1.57;;;;;;;7.71;100.00;153340.91;4993557;28;20455;-76
2023/11/21 01:16:38;;;;;;;1.73;1.40;;;;;;;7.72;100.00;153342.22;5011396;28;20558;-76
2023/11/21 01:19:05;;;;;;;3.90;1.40;;;;;;;7.71;100.00;153339.63;5010903;28;21052;-75
2023/11/21 01:21:32;;;;;;;3.80;1.90;;;;;;;7.72;100.00;153342.22;5023684;28;20458;-75
2023/11/21 01:23:59;;;;;;;3.00;1.80;;;;;;;7.73;100.00;153346.06;5012482;28;20506;-75
2023/11/21 01:26:25;;;;;;;2.77;2.00;;;;;;;7.74;100.00;153347.38;5010501;28;20448;-75
2023/11/21 01:28:52;;;;;;;2.67;2.40;;;;;;;7.72;100.00;153343.53;4991819;28;20464;-75
2023/11/21 01:31:19;;;;;;;2.23;1.60;;;;;;;7.74;100.00;153347.38;5005118;28;20474;-76
2023/11/21 01:33:48;;;;;;;4.83;1.80;;;;;;;7.74;100.00;153347.38;5017872;28;20462;-75
2023/11/21 01:36:15;;;;;;;4.07;2.20;;;;;;;7.74;100.00;153347.38;5014828;28;20476;-75
2023/11/21 01:38:42;;;;;;;3.40;1.47;;;;;;;7.75;100.00;153351.28;5009140;28;20448;-75
2023/11/21 01:41:11;;;;;;;4.80;1.90;;;;;;;7.75;100.00;153349.97;5011598;28;20983;-76
2023/11/21 01:43:37;;;;;;;4.83;2.27;;;;;;;7.75;100.00;153351.28;4989503;28;20819;-75
2023/11/21 01:46:06;;;;;;;3.17;1.60;;;;;;;7.75;100.00;153351.28;4986874;28;20458;-75
2023/11/21 01:48:33;;;;;;;4.13;1.90;;;;;;;7.76;100.00;153352.53;5007451;28;20482;-75
2023/11/21 01:51:01;;;;;;;3.60;2.10;;;;;;;7.76;100.00;153352.53;5009848;28;20480;-75
2023/11/21 01:53:28;;;;;;;1.97;1.40;;;;;;;7.76;100.00;153352.53;4992132;28;20488;-76
2023/11/21 01:55:54;;;;;;;3.07;1.40;;;;;;;7.75;100.00;153349.97;4987791;28;20487;-75
2023/11/21 01:58:21;;;;;;;4.03;1.77;;;;;;;7.77;100.00;153356.44;4995636;28;20869;-75
2023/11/21 02:00:50;;;;;;;2.53;1.20;;;;;;;7.77;100.00;153356.44;4997978;28;20461;-76
2023/11/21 02:03:17;;;;;;;2.80;2.00;;;;;;;7.78;100.00;153357.72;5008653;28;20453;-75
2023/11/21 02:05:43;;;;;;;1.97;1.23;;;;;;;7.76;100.00;153353.84;5013180;28;21072;-75
2023/11/21 02:08:11;;;;;;;1.83;1.30;;;;;;;7.77;100.00;153355.13;5013882;28;20494;-75
2023/11/21 02:10:38;;;;;;;2.27;2.00;;;;;;;7.76;100.00;153352.53;5007858;28;20470;-75
2023/11/21 02:13:06;;;;;;;3.83;1.50;;;;;;;7.76;100.00;153352.53;4993175;28;20539;-75
2023/11/21 02:15:32;;;;;;;2.90;1.73;;;;;;;7.72;100.00;153343.53;5014879;28;20453;-75
2023/11/21 02:18:00;;;;;;;3.10;1.77;;;;;;;7.73;100.00;153344.81;5009586;28;20461;-75
2023/11/21 02:20:29;;;;;;;2.80;1.80;;;;;;;7.73;100.00;153344.81;5007049;28;20467;-75
2023/11/21 02:22:59;;;;;;;2.20;1.20;;;;;;;7.74;100.00;153347.38;5008652;28;20543;-74
2023/11/21 02:25:27;;;;;;;4.07;1.20;;;;;;;7.73;100.00;153346.06;5007551;28;20456;-75
2023/11/21 02:27:54;;;;;;;3.00;1.50;;;;;;;7.74;100.00;153347.38;5007877;28;20456;-75
2023/11/21 02:30:21;;;;;;;2.10;1.53;;;;;;;7.73;100.00;153344.81;5015273;28;20452;-75
2023/11/21 02:32:49;;;;;;;3.93;1.20;;;;;;;7.71;100.00;153339.63;5010518;28;20509;-75
2023/11/21 02:35:15;;;;;;;3.00;1.27;;;;;;;7.71;100.00;153339.63;5007540;28;20518;-75
2023/11/21 02:37:42;;;;;;;2.30;1.27;;;;;;;7.71;100.00;153339.63;5008373;28;20452;-75
2023/11/21 02:40:12;;;;;;;3.23;1.10;;;;;;;7.72;100.00;153342.22;4989494;28;20461;-75
2023/11/21 02:42:40;;;;;;;2.67;1.10;;;;;;;7.73;100.00;153344.81;4972294;28;20437;-75
2023/11/21 02:45:08;;;;;;;2.70;1.10;;;;;;;7.71;100.00;153339.63;5001324;28;20543;-75
2023/11/21 02:47:34;;;;;;;2.70;1.50;;;;;;;7.69;100.00;153334.47;5006286;28;20457;-75
2023/11/21 02:50:01;;;;;;;2.10;1.23;;;;;;;7.69;100.00;153335.75;5006284;28;20980;-75
2023/11/21 02:52:27;;;;;;;2.60;1.00;;;;;;;7.67;100.00;153329.31;5008517;28;20491;-75
2023/11/21 02:54:54;;;;;;;2.47;1.33;;;;;;;7.65;100.00;153324.16;5010647;28;20491;-75
2023/11/21 02:57:22;;;;;;;3.60;1.40;;;;;;;7.64;100.00;153321.56;5008800;28;20484;-75
2023/11/21 02:59:48;;;;;;;1.87;1.40;;;;;;;7.62;100.00;153316.41;5007600;28;20947;-75
2023/11/21 03:02:15;;;;;;;2.00;1.23;;;;;;;7.63;100.00;153318.94;5008524;28;20952;-75
2023/11/21 03:04:43;;;;;;;1.60;1.10;;;;;;;7.61;100.00;153313.78;4991393;28;20485;-75
2023/11/21 03:07:10;;;;;;;1.97;1.20;;;;;;;7.60;100.00;153312.50;5010527;28;20546;-75
2023/11/21 03:09:36;;;;;;;3.73;1.00;;;;;;;7.59;100.00;153308.63;5021241;28;20457;-75
2023/11/21 03:12:05;;;;;;;3.47;1.37;;;;;;;7.58;100.00;153306.03;4996026;28;20480;-75
2023/11/21 03:14:33;;;;;;;3.97;1.30;;;;;;;7.58;100.00;153306.03;5013515;28;20472;-75
2023/11/21 03:17:00;;;;;;;1.83;1.00;;;;;;;7.57;100.00;153304.72;5009611;28;20525;-75
2023/11/21 03:19:26;;;;;;;2.27;0.90;;;;;;;7.56;100.00;153300.88;4989657;28;20449;-74
2023/11/21 03:21:54;;;;;;;1.93;0.90;;;;;;;7.55;100.00;153298.28;4993725;28;20453;-75
2023/11/21 03:24:22;;;;;;;1.47;1.03;;;;;;;7.55;100.00;153299.59;5005495;28;20543;-74
2023/11/21 03:26:48;;;;;;;2.50;1.00;;;;;;;7.56;100.00;153302.19;5006762;28;20543;-75
2023/11/21 03:29:15;;;;;;;1.80;1.23;;;;;;;7.55;100.00;153299.59;4989045;28;20804;-74
2023/11/21 03:31:43;;;;;;;1.93;1.00;;;;;;;7.55;100.00;153298.28;5016831;28;20487;-74
2023/11/21 03:34:15;;;;;;;1.60;0.90;;;;;;;7.51;100.00;153287.97;5009252;28;20461;-75
2023/11/21 03:36:42;;;;;;;2.03;1.43;;;;;;;7.53;100.00;153293.13;4987397;28;20460;-75
2023/11/21 03:39:08;;;;;;;2.33;1.40;;;;;;;7.50;100.00;153286.66;5008404;28;20540;-75
2023/11/21 03:41:35;;;;;;;3.37;1.07;;;;;;;7.49;100.00;153282.81;5011073;28;21104;-75
2023/11/21 03:44:02;;;;;;;1.40;0.80;;;;;;;7.48;100.00;153281.50;5013068;28;20459;-75
2023/11/21 03:46:28;;;;;;;2.17;1.37;;;;;;;7.50;100.00;153285.38;5002054;28;20480;-75
2023/11/21 03:48:56;;;;;;;1.70;0.87;;;;;;;7.52;100.00;153290.56;4991274;28;20449;-75
2023/11/21 03:51:23;;;;;;;1.40;0.93;;;;;;;7.54;100.00;153295.72;5009867;28;20697;-74
2023/11/21 03:53:49;;;;;;;1.27;1.00;;;;;;;7.52;100.00;153290.56;5017400;28;20974;-74
2023/11/21 03:56:16;;;;;;;1.43;0.90;;;;;;;7.51;100.00;153289.28;5006554;28;20475;-74
2023/11/21 03:58:42;;;;;;;1.57;0.93;;;;;;;7.51;100.00;153287.97;5010884;28;20448;-75
2023/11/21 04:01:09;;;;;;;1.23;1.00;;;;;;;7.48;100.00;153281.50;5012415;28;20517;-74
2023/11/21 04:03:35;;;;;;;3.93;1.37;;;;;;;7.49;100.00;153282.81;5006364;28;20970;-75
2023/11/21 04:06:06;;;;;;;1.87;1.13;;;;;;;7.49;100.00;153282.81;5013808;28;20460;-75
2023/11/21 04:08:33;;;;;;;1.90;0.90;;;;;;;7.51;100.00;153287.97;5012960;28;20712;-75
2023/11/21 04:11:01;;;;;;;1.33;1.03;;;;;;;7.52;100.00;153290.56;5006262;28;20511;-74
2023/11/21 04:13:27;;;;;;;1.57;0.77;;;;;;;7.53;100.00;153293.13;5014432;28;20519;-74
2023/11/21 04:15:54;;;;;;;1.33;0.90;;;;;;;7.52;100.00;153290.56;5011022;28;20464;-74
2023/11/21 04:18:20;;;;;;;2.73;0.93;;;;;;;7.51;100.00;153289.28;5006312;28;20483;-75
2023/11/21 04:20:47;;;;;;;1.20;0.70;;;;;;;7.53;100.00;153293.13;5003554;28;20483;-74
2023/11/21 04:23:15;;;;;;;2.57;1.10;;;;;;;7.55;100.00;153298.28;5010993;28;20436;-74
2023/11/21 04:25:41;;;;;;;1.70;1.00;;;;;;;7.54;100.00;153297.03;5006822;28;20460;-75
2023/11/21 04:28:08;;;;;;;2.27;0.87;;;;;;;7.54;100.00;153295.72;5007500;28;20464;-75
2023/11/21 04:30:35;;;;;;;1.70;0.93;;;;;;;7.53;100.00;153294.44;5011322;28;20460;-75
2023/11/21 04:33:02;;;;;;;1.77;0.80;;;;;;;7.56;100.00;153302.19;5009052;28;20460;-74
2023/11/21 04:35:29;;;;;;;1.37;0.80;;;;;;;7.55;100.00;153299.59;4989778;28;20594;-74
2023/11/21 04:37:57;;;;;;;1.00;0.63;;;;;;;7.55;100.00;153298.28;5008050;28;20483;-74
2023/11/21 04:40:27;;;;;;;1.13;0.63;;;;;;;7.54;100.00;153295.72;5023339;28;20452;-74
2023/11/21 04:42:53;;;;;;;1.37;0.80;;;;;;;7.54;100.00;153295.72;5012222;28;20457;-74
2023/11/21 04:45:20;;;;;;;1.20;0.90;;;;;;;7.54;100.00;153295.72;5010324;28;20506;-75
2023/11/21 04:47:46;;;;;;;1.00;0.80;;;;;;;7.55;100.00;153298.28;5011861;28;20823;-74
2023/11/21 04:50:13;;;;;;;1.10;0.70;;;;;;;7.52;100.00;153290.56;5018791;28;20440;-74
2023/11/21 04:52:39;;;;;;;2.27;0.70;;;;;;;7.50;100.00;153286.66;5011463;28;20465;-74
2023/11/21 04:55:09;;;;;;;1.50;0.70;;;;;;;7.52;100.00;153290.56;5028020;28;20482;-75
2023/11/21 04:57:37;;;;;;;1.37;1.00;;;;;;;7.51;100.00;153287.97;5022987;28;20542;-75
2023/11/21 05:00:05;;;;;;;1.90;1.00;;;;;;;7.47;100.00;153277.63;5008673;28;20452;-75
2023/11/21 05:02:34;;;;;;;1.43;0.93;;;;;;;7.44;100.00;153269.91;5017763;28;20447;-74
2023/11/21 05:05:00;;;;;;;4.40;1.40;;;;;;;7.41;100.00;153262.16;5021434;28;20986;-74
2023/11/21 05:07:28;;;;;;;1.00;0.63;;;;;;;7.40;100.00;153259.53;5013215;28;20455;-75
2023/11/21 05:09:55;;;;;;;1.67;0.97;;;;;;;7.41;100.00;153262.16;5001996;28;20563;-75
2023/11/21 05:12:23;;;;;;;1.53;1.03;;;;;;;7.41;100.00;153263.44;5011577;28;20502;-75
2023/11/21 05:14:51;;;;;;;1.43;1.10;;;;;;;7.40;100.00;153259.53;5010049;28;20452;-75
2023/11/21 05:17:17;;;;;;;1.20;0.60;;;;;;;7.42;100.00;153266.00;5007661;28;20552;-74
2023/11/21 05:19:45;;;;;;;2.53;1.00;;;;;;;7.42;100.00;153264.69;5012681;28;20437;-75
2023/11/21 05:22:12;;;;;;;1.30;1.00;;;;;;;7.43;100.00;153267.31;5013078;28;20475;-75
2023/11/21 05:24:39;;;;;;;1.33;0.80;;;;;;;7.42;100.00;153264.69;5010257;28;20544;-75
2023/11/21 05:27:05;;;;;;;1.50;0.83;;;;;;;7.42;100.00;153266.00;5004250;28;20816;-75
2023/11/21 05:29:32;;;;;;;3.20;0.93;;;;;;;7.41;100.00;153262.16;5005825;28;20518;-74
2023/11/21 05:32:00;;;;;;;1.73;1.17;;;;;;;7.39;100.00;153258.25;4993028;28;20472;-75
2023/11/21 05:34:26;;;;;;;1.50;0.80;;;;;;;7.41;100.00;153262.16;5006568;28;20456;-75
2023/11/21 05:36:53;;;;;;;1.27;0.90;;;;;;;7.40;100.00;153259.53;5005477;28;20468;-74
2023/11/21 05:39:20;;;;;;;1.30;0.93;;;;;;;7.42;100.00;153264.69;5007958;28;21064;-74
2023/11/21 05:41:47;;;;;;;1.67;0.70;;;;;;;7.40;100.00;153259.53;5008302;28;20518;-75
2023/11/21 05:44:15;;;;;;;3.83;0.90;;;;;;;7.40;100.00;153259.53;5010573;28;20463;-75
2023/11/21 05:46:43;;;;;;;2.40;1.40;;;;;;;7.38;100.00;153254.41;5008455;28;20457;-75
2023/11/21 05:49:11;;;;;;;1.67;1.17;;;;;;;7.40;100.00;153259.53;5013695;28;20441;-75
2023/11/21 05:51:37;;;;;;;1.77;1.07;;;;;;;7.42;100.00;153264.69;5009486;28;20966;-75
2023/11/21 05:54:05;;;;;;;1.20;0.70;;;;;;;7.39;100.00;153257.00;5005929;28;20480;-75
2023/11/21 05:56:31;;;;;;;2.03;0.77;;;;;;;7.39;100.00;153257.00;5005959;28;20535;-75
2023/11/21 05:58:58;;;;;;;1.40;0.90;;;;;;;7.40;100.00;153259.53;5009279;28;20572;-75
2023/11/21 06:01:24;;;;;;;1.20;0.80;;;;;;;7.38;100.00;153254.41;5009785;28;20514;-75
2023/11/21 06:03:51;;;;;;;1.40;0.70;;;;;;;7.34;100.00;153246.63;5009644;28;20452;-75
2023/11/21 06:06:19;;;;;;;1.10;0.63;;;;;;;7.33;100.00;153244.03;5012027;28;20457;-75
2023/11/21 06:08:45;;;;;;;1.97;1.00;;;;;;;7.31;100.00;153238.88;5017767;28;20522;-75
2023/11/21 06:11:12;;;;;;;2.93;1.10;;;;;;;7.29;100.00;153233.72;5013819;28;20506;-75
2023/11/21 06:13:39;;;;;;;1.93;1.07;;;;;;;7.28;100.00;153229.88;5012845;28;20487;-74
2023/11/21 06:16:16;;;;;;;1.70;1.30;;;;;;;7.27;100.00;153228.56;5015959;28;20808;-75
2023/11/21 06:18:43;;;;;;;2.17;1.10;;;;;;;7.26;100.00;153224.66;5018114;28;20797;-75
2023/11/21 06:21:10;;;;;;;1.33;0.90;;;;;;;7.27;100.00;153227.28;5012725;28;20478;-75
2023/11/21 06:23:42;;;;;;;2.37;1.10;;;;;;;7.27;100.00;153228.56;5014752;28;20452;-74
2023/11/21 06:26:10;;;;;;;1.10;0.80;;;;;;;7.26;100.00;153225.97;5015572;28;20448;-75
2023/11/21 06:28:36;;;;;;;1.60;1.00;;;;;;;7.27;100.00;153228.56;5012186;28;20464;-76
2023/11/21 06:31:06;;;;;;;2.23;1.57;;;;;;;7.27;100.00;153227.28;5001569;28;20487;-76
2023/11/21 06:33:36;;;;;;;3.40;1.87;;;;;;;7.29;100.00;153233.72;5014472;28;20483;-74
2023/11/21 06:36:03;;;;;;;2.53;1.63;;;;;;;7.29;100.00;153233.72;5014207;28;20456;-75
2023/11/21 06:38:31;;;;;;;1.80;1.53;;;;;;;7.30;100.00;153235.03;5008271;28;20546;-75
2023/11/21 06:41:04;;;;;;;2.50;1.60;;;;;;;7.31;100.00;153238.88;5013810;28;20971;-74
2023/11/21 06:47:51;;;;;;;1.60;1.33;;;;;;;7.31;100.00;153238.88;5008572;28;20448;-74
2023/11/21 06:50:17;;;;;;;2.50;2.00;;;;;;;7.33;100.00;153244.03;5014183;28;20871;-74
2023/11/21 06:52:44;;;;;;;3.10;2.03;;;;;;;7.32;100.00;153241.47;5012547;28;20949;-74
2023/11/21 06:55:11;;;;;;;2.40;1.97;;;;;;;7.33;100.00;153244.03;5009187;28;20525;-74
2023/11/21 06:57:39;;;;;;;2.80;2.10;;;;;;;7.34;100.00;153246.63;5011362;28;21275;-75
2023/11/21 07:00:08;;;;;;;2.00;1.80;;;;;;;7.33;100.00;153244.03;5012078;28;20539;-75
2023/11/21 07:02:35;;;;;;;1.60;1.43;;;;;;;7.36;100.00;153251.78;5010560;28;20451;-74
2023/11/21 07:05:02;;;;;;;1.90;1.30;;;;;;;7.38;100.00;153254.41;5008056;28;21064;-74
2023/11/21 07:07:28;;;;;;;2.37;1.83;;;;;;;7.40;100.00;153260.84;5008073;28;20984;-75
2023/11/21 07:09:55;;;;;;;2.10;1.63;;;;;;;7.42;100.00;153264.69;5011163;28;20444;-74
2023/11/21 07:12:23;;;;;;;2.10;1.90;;;;;;;7.43;100.00;153268.59;5015819;28;20468;-74
2023/11/21 07:14:51;;;;;;;2.60;2.13;;;;;;;7.45;100.00;153272.47;5005679;28;20983;-75
2023/11/21 07:17:17;;;;;;;2.23;1.70;;;;;;;7.45;100.00;153273.75;5012146;28;20488;-74
2023/11/21 07:19:45;;;;;;;2.10;1.63;;;;;;;7.46;100.00;153276.34;5010189;28;20603;-74
2023/11/21 07:22:12;;;;;;;5.17;2.40;;;;;;;7.48;100.00;153280.22;5010362;28;20475;-74
2023/11/21 07:24:39;;;;;;;2.80;2.13;;;;;;;7.49;100.00;153282.81;4984415;28;20458;-74
2023/11/21 07:27:05;;;;;;;4.00;2.27;;;;;;;7.50;100.00;153285.38;5013670;28;20466;-74
2023/11/21 07:29:33;;;;;;;3.30;2.00;;;;;;;7.51;100.00;153287.97;5013644;28;20834;-74
2023/11/21 07:32:01;;;;;;;1.80;1.60;;;;;;;7.52;100.00;153290.56;5013297;28;20455;-74
2023/11/21 07:34:27;;;;;;;3.00;2.40;;;;;;;7.53;100.00;153293.13;5008892;28;20645;-75
2023/11/21 07:36:54;;;;;;;2.10;1.80;;;;;;;7.54;100.00;153295.72;5013611;28;20510;-74
2023/11/21 07:39:20;;;;;;;3.90;2.20;;;;;;;7.57;100.00;153303.47;5012608;28;20506;-74
2023/11/21 07:41:48;;;;;;;3.47;2.00;;;;;;;7.58;100.00;153306.03;5014138;28;20459;-74
2023/11/21 07:44:16;;;;;;;2.50;2.30;;;;;;;7.60;100.00;153311.25;5010731;28;20448;-75
2023/11/21 07:46:44;;;;;;;3.30;2.33;;;;;;;7.61;100.00;153313.78;5013333;28;20523;-74
2023/11/21 07:49:12;;;;;;;2.40;2.10;;;;;;;7.61;100.00;153313.78;5013905;28;20512;-74
2023/11/21 07:51:38;;;;;;;3.07;2.30;;;;;;;7.62;100.00;153317.69;5012297;28;20444;-75
2023/11/21 07:54:05;;;;;;;2.90;1.90;;;;;;;7.62;100.00;153317.69;5011993;28;20891;-75
2023/11/21 07:56:32;;;;;;;3.17;2.50;;;;;;;7.65;100.00;153325.41;5011649;28;20559;-75
2023/11/21 07:58:58;;;;;;;4.20;1.70;;;;;;;7.66;100.00;153326.72;5005377;28;20581;-74
2023/11/21 08:01:25;;;;;;;5.40;2.27;;;;;;;7.67;100.00;153329.31;5014129;28;20451;-75
2023/11/21 08:03:52;;;;;;;2.33;1.87;;;;;;;7.67;100.00;153329.31;5012185;28;20854;-74
2023/11/21 08:06:20;;;;;;;2.80;2.23;;;;;;;7.68;100.00;153331.84;5014755;28;20495;-76
2023/11/21 08:08:47;;;;;;;2.07;1.87;;;;;;;7.70;100.00;153337.06;4996908;28;20456;-76
2023/11/21 08:11:13;;;;;;;4.70;2.60;;;;;;;7.70;100.00;153338.38;5013463;28;20451;-76
2023/11/21 08:13:40;;;;;;;2.97;1.70;;;;;;;7.71;100.00;153340.91;5019284;28;20488;-76
2023/11/21 08:16:36;;;;;;;2.57;2.07;;;;;;;7.74;100.00;153347.38;5020764;28;20449;-76
2023/11/21 08:19:02;;;;;;;4.87;2.50;;;;;;;7.73;100.00;153344.81;4985871;28;20465;-76
2023/11/21 08:21:31;;;;;;;3.70;2.40;;;;;;;7.73;100.00;153346.06;5019974;28;20587;-76
2023/11/21 08:23:57;;;;;;;3.43;2.40;;;;;;;7.74;100.00;153347.38;5021088;28;20509;-76
2023/11/21 08:26:24;;;;;;;3.70;2.60;;;;;;;7.76;100.00;153353.84;5021135;28;20441;-75
2023/11/21 08:28:52;;;;;;;4.80;2.80;;;;;;;7.78;100.00;153357.72;4988734;28;20854;-76
2023/11/21 08:31:24;;;;;;;3.00;2.33;;;;;;;7.79;100.00;153361.59;5022741;28;20455;-76
2023/11/21 08:33:51;;;;;;;2.47;1.93;;;;;;;7.80;100.00;153364.19;5018526;28;20481;-76
2023/11/21 08:36:17;;;;;;;3.50;2.10;;;;;;;7.79;100.00;153361.59;5022222;28;20452;-76
2023/11/21 08:38:45;;;;;;;2.97;2.30;;;;;;;7.81;100.00;153365.50;5020711;28;20466;-76
2023/11/21 08:41:12;;;;;;;2.73;2.37;;;;;;;7.82;100.00;153368.03;5019502;28;20978;-76
2023/11/21 08:43:39;;;;;;;3.47;2.60;;;;;;;7.84;100.00;153374.50;5019766;28;20447;-76
2023/11/21 08:46:06;;;;;;;2.80;2.50;;;;;;;7.84;100.00;153374.50;5005463;28;20456;-76
2023/11/21 08:48:33;;;;;;;3.03;2.30;;;;;;;7.84;100.00;153374.50;5019714;28;20475;-76
2023/11/21 08:50:59;;;;;;;2.30;1.90;;;;;;;7.86;100.00;153378.41;5020678;28;20466;-76
2023/11/21 08:53:26;;;;;;;3.97;2.50;;;;;;;7.89;100.00;153387.41;5020757;28;20591;-76
2023/11/21 08:55:54;;;;;;;3.57;2.50;;;;;;;7.91;100.00;153392.63;5020054;28;20558;-76
2023/11/21 08:58:21;;;;;;;3.70;2.40;;;;;;;7.94;100.00;153399.09;5020070;28;21236;-76
2023/11/21 09:00:48;;;;;;;3.10;2.10;;;;;;;7.98;100.00;153410.69;5021823;28;20456;-76
2023/11/21 09:03:14;;;;;;;2.80;2.03;;;;;;;8.01;100.00;153417.16;5022209;28;20453;-76
2023/11/21 09:05:41;;;;;;;2.30;1.80;;;;;;;8.05;100.00;153427.47;5020435;28;20555;-76
2023/11/21 09:08:07;;;;;;;3.10;2.07;;;;;;;8.08;100.00;153433.94;5020203;28;20468;-76
2023/11/21 09:10:35;;;;;;;4.43;2.20;;;;;;;8.07;100.00;153432.66;5018418;28;21003;-76
2023/11/21 09:13:03;;;;;;;3.13;2.33;;;;;;;8.10;100.00;153440.38;5020137;28;20467;-76
2023/11/21 09:15:29;;;;;;;1.93;1.60;;;;;;;8.11;100.00;153443.00;5019768;28;20457;-76
2023/11/21 09:17:56;;;;;;;3.63;2.20;;;;;;;8.19;100.00;153463.66;5020002;28;20881;-76
2023/11/21 09:20:23;;;;;;;2.73;2.20;;;;;;;8.30;100.00;153490.84;5020461;28;20448;-76
2023/11/21 09:22:50;;;;;;;3.00;2.30;;;;;;;8.38;100.00;153511.53;5003669;28;20460;-76
2023/11/21 09:25:16;;;;;;;3.00;2.37;;;;;;;8.45;100.00;153530.91;5016942;28;20475;-76
2023/11/21 09:27:43;;;;;;;2.90;1.90;;;;;;;8.53;100.00;153551.59;5015138;28;20471;-76
2023/11/21 09:30:14;;;;;;;3.87;2.50;;;;;;;8.65;100.00;153580.03;5016940;28;20460;-75
2023/11/21 09:32:40;;;;;;;2.87;2.10;;;;;;;8.73;100.00;153602.03;5018203;28;20460;-76
2023/11/21 09:35:08;;;;;;;5.53;2.57;;;;;;;8.86;100.00;153634.34;5017873;28;20472;-76
2023/11/21 09:37:35;;;;;;;5.23;2.13;;;;;;;8.91;100.00;153647.28;5016376;28;20463;-76
2023/11/21 09:40:02;;;;;;;2.93;1.87;;;;;;;8.94;100.00;153656.34;5015774;28;20455;-76
2023/11/21 09:42:33;;;;;;;2.77;1.80;;;;;;;8.96;100.00;153660.19;5016427;28;20456;-76
2023/11/21 09:45:05;;;;;;;2.10;1.90;;;;;;;8.99;100.00;153667.97;5014989;28;20463;-76
2023/11/21 09:47:33;;;;;;;2.67;2.00;;;;;;;9.02;100.00;153677.03;5015840;28;20466;-76
2023/11/21 09:50:02;;;;;;;2.63;1.80;;;;;;;9.03;100.00;153678.28;5015818;28;20466;-76
2023/11/21 09:52:30;;;;;;;2.90;1.80;;;;;;;9.00;100.00;153671.81;5016166;28;20470;-76
2023/11/21 09:54:58;;;;;;;3.43;1.70;;;;;;;8.97;100.00;153662.81;5009233;28;21253;-76
2023/11/21 09:57:25;;;;;;;2.57;1.83;;;;;;;8.93;100.00;153652.44;5017164;28;20469;-76
2023/11/21 09:59:55;;;;;;;1.60;1.17;;;;;;;8.93;100.00;153653.72;5017420;28;21020;-76
2023/11/21 10:02:25;;;;;;;1.87;1.50;;;;;;;8.93;100.00;153652.44;5015948;28;20463;-76
2023/11/21 10:04:54;;;;;;;3.03;2.27;;;;;;;8.90;100.00;153645.97;5017600;28;20948;-76
2023/11/21 10:07:21;;;;;;;3.37;1.93;;;;;;;8.91;100.00;153647.28;5017010;28;20550;-76
2023/11/21 10:09:48;;;;;;;2.80;2.10;;;;;;;8.89;100.00;153643.41;5016212;28;20471;-76
2023/11/21 10:12:16;;;;;;;3.57;1.80;;;;;;;8.89;100.00;153642.13;5018211;28;20890;-76
2023/11/21 10:14:43;;;;;;;1.93;1.70;;;;;;;8.83;100.00;153627.88;5013420;28;20518;-76
2023/11/21 10:17:12;;;;;;;1.90;1.40;;;;;;;8.83;100.00;153626.59;5015369;28;20544;-76
2023/11/21 10:19:39;;;;;;;2.13;1.37;;;;;;;8.82;100.00;153623.97;5017261;28;20865;-76
2023/11/21 10:22:08;;;;;;;1.50;1.20;;;;;;;8.84;100.00;153629.19;5014705;28;20463;-76
2023/11/21 10:24:35;;;;;;;1.60;0.90;;;;;;;8.84;100.00;153630.44;5017886;28;20445;-76
2023/11/21 10:27:02;;;;;;;1.77;1.10;;;;;;;8.79;100.00;153617.50;5017320;28;20469;-76
2023/11/21 10:29:30;;;;;;;1.50;1.00;;;;;;;8.81;100.00;153621.41;5015493;28;20814;-76
2023/11/21 10:31:58;;;;;;;2.83;1.60;;;;;;;8.77;100.00;153612.34;5015232;28;20448;-76
2023/11/21 10:34:27;;;;;;;2.73;1.60;;;;;;;8.76;100.00;153608.50;5013123;28;20882;-76
2023/11/21 10:36:56;;;;;;;1.60;1.23;;;;;;;8.74;100.00;153603.28;5015958;28;20456;-76
2023/11/21 10:39:30;;;;;;;2.00;1.50;;;;;;;8.72;100.00;153598.13;4981829;28;20538;-76
2023/11/21 10:41:57;;;;;;;2.40;1.90;;;;;;;8.70;100.00;153592.97;5013217;28;20470;-76
2023/11/21 10:44:23;;;;;;;2.27;1.60;;;;;;;8.69;100.00;153590.38;5014031;28;21803;-76
2023/11/21 10:46:51;;;;;;;1.80;1.10;;;;;;;8.67;100.00;153585.22;5014935;28;20488;-76
2023/11/21 10:49:19;;;;;;;1.70;1.13;;;;;;;8.69;100.00;153590.38;5011022;28;21100;-76
2023/11/21 10:51:46;;;;;;;1.93;1.10;;;;;;;8.70;100.00;153594.28;5013879;28;20475;-76
2023/11/21 10:54:13;;;;;;;3.23;1.30;;;;;;;8.66;100.00;153582.66;5013059;28;20926;-76
2023/11/21 10:56:42;;;;;;;1.70;1.10;;;;;;;8.64;100.00;153577.44;5016855;28;20502;-76
2023/11/21 10:59:11;;;;;;;1.80;0.97;;;;;;;8.63;100.00;153576.13;5015690;28;20531;-76
2023/11/21 11:01:40;;;;;;;1.10;0.77;;;;;;;8.66;100.00;153582.66;5014537;28;20880;-76
2023/11/21 11:04:09;;;;;;;2.33;1.00;;;;;;;8.64;100.00;153577.44;5015981;28;20448;-74
2023/11/21 11:06:38;;;;;;;0.90;0.60;;;;;;;8.59;100.00;153565.81;4998991;28;20472;-74
2023/11/21 11:09:08;;;;;;;2.50;0.90;;;;;;;8.59;100.00;153565.81;5012807;28;20443;-76
2023/11/21 11:11:38;;;;;;;1.23;0.97;;;;;;;8.61;100.00;153570.97;5016527;28;20859;-76
2023/11/21 11:14:06;;;;;;;1.30;1.00;;;;;;;8.65;100.00;153580.03;5013759;28;20471;-76
2023/11/21 11:16:36;;;;;;;1.90;0.70;;;;;;;8.66;100.00;153582.66;5000664;28;20452;-76
2023/11/21 11:19:03;;;;;;;1.20;0.60;;;;;;;8.64;100.00;153577.44;5016181;28;20513;-76
2023/11/21 11:21:48;;;;;;;1.20;0.63;;;;;;;8.61;100.00;153569.69;5014355;28;20454;-77
2023/11/21 11:24:27;;;;;;;3.00;1.00;;;;;;;8.61;100.00;153570.97;5014984;28;20431;-76
2023/11/21 11:26:58;;;;;;;2.07;1.00;;;;;;;8.64;100.00;153577.44;5016259;28;20456;-76
2023/11/21 11:29:32;;;;;;;1.50;1.20;;;;;;;8.64;100.00;153578.75;5013962;28;20456;-76